createdAt,value
2023-05-05T00:01:29.709Z,12.00
2023-05-05T00:03:56.703Z,12.37
2023-05-05T00:06:23.716Z,12.39
2023-05-05T00:08:50.727Z,12.19
2023-05-05T00:11:17.725Z,12.30
2023-05-05T00:13:44.730Z,12.35
2023-05-05T00:16:11.644Z,12.20
2023-05-05T00:18:38.549Z,12.53
2023-05-05T00:21:05.614Z,12.49
2023-05-05T00:23:32.568Z,12.43
2023-05-05T00:25:59.600Z,12.47
2023-05-05T00:28:27.538Z,12.40
2023-05-05T00:30:54.563Z,12.51
2023-05-05T00:33:22.072Z,12.38
2023-05-05T00:35:49.030Z,12.42
2023-05-05T00:38:16.349Z,12.48
2023-05-05T00:40:43.341Z,12.51
2023-05-05T00:43:10.370Z,12.43
2023-05-05T00:45:39.093Z,12.49
2023-05-05T00:48:06.904Z,12.45
2023-05-05T00:50:34.808Z,12.45
2023-05-05T00:53:03.907Z,12.57
2023-05-05T00:55:31.799Z,12.55
2023-05-05T00:57:59.860Z,12.47
2023-05-05T01:00:28.150Z,12.57
2023-05-05T01:02:56.234Z,12.49
2023-05-05T01:05:27.040Z,12.44
2023-05-05T01:08:14.420Z,12.55
2023-05-05T01:10:44.081Z,12.70
2023-05-05T01:13:26.774Z,12.85
2023-05-05T01:16:25.233Z,12.77
2023-05-05T01:19:27.347Z,12.53
2023-05-05T01:21:59.250Z,12.69
2023-05-05T01:24:44.094Z,12.69
2023-05-05T01:27:49.537Z,12.70
2023-05-05T01:30:19.427Z,12.89
2023-05-05T01:32:55.383Z,12.99
2023-05-05T01:35:45.894Z,13.13
2023-05-05T01:38:17.126Z,13.13
2023-05-05T01:40:48.910Z,13.22
2023-05-05T01:43:19.554Z,13.30
2023-05-05T01:45:49.015Z,13.40
2023-05-05T01:48:20.052Z,13.28
2023-05-05T01:50:48.397Z,13.03
2023-05-05T01:53:17.641Z,13.08
2023-05-05T01:55:46.905Z,13.33
2023-05-05T01:58:16.900Z,13.11
2023-05-05T02:00:44.927Z,13.22
2023-05-05T02:03:15.440Z,13.15
2023-05-05T02:05:43.944Z,13.31
2023-05-05T02:08:12.354Z,13.42
2023-05-05T02:10:43.576Z,13.46
2023-05-05T02:13:13.104Z,13.37
2023-05-05T02:15:41.922Z,13.23
2023-05-05T02:18:10.879Z,13.26
2023-05-05T02:20:39.059Z,13.01
2023-05-05T02:23:08.022Z,12.93
2023-05-05T02:25:45.838Z,12.57
2023-05-05T02:28:21.497Z,12.83
2023-05-05T02:30:58.196Z,12.68
2023-05-05T02:33:31.645Z,12.37
2023-05-05T02:36:08.018Z,12.34
2023-05-05T02:38:39.135Z,12.27
2023-05-05T02:41:11.379Z,12.10
2023-05-05T02:43:42.650Z,12.28
2023-05-05T02:46:11.124Z,12.12
2023-05-05T02:48:40.901Z,11.91
2023-05-05T02:51:07.900Z,12.05
2023-05-05T02:53:37.282Z,12.05
2023-05-05T02:56:19.517Z,12.15
2023-05-05T02:59:03.554Z,11.92
2023-05-05T03:01:46.695Z,11.98
2023-05-05T03:04:39.016Z,12.19
2023-05-05T03:07:12.338Z,12.24
2023-05-05T03:09:55.896Z,12.41
2023-05-05T03:12:31.399Z,12.51
2023-05-05T03:15:13.828Z,12.64
2023-05-05T03:17:43.003Z,12.69
2023-05-05T03:20:12.535Z,12.55
2023-05-05T03:22:42.379Z,12.56
2023-05-05T03:25:13.047Z,12.59
2023-05-05T03:27:41.021Z,12.61
2023-05-05T03:30:09.655Z,12.86
2023-05-05T03:32:42.884Z,13.02
2023-05-05T03:35:10.031Z,13.13
2023-05-05T03:37:36.918Z,13.19
2023-05-05T03:40:04.107Z,13.14
2023-05-05T03:42:32.245Z,13.25
2023-05-05T03:44:59.217Z,12.90
2023-05-05T03:47:26.823Z,13.11
2023-05-05T03:49:54.656Z,13.22
2023-05-05T03:52:21.581Z,13.31
2023-05-05T03:54:48.906Z,13.31
2023-05-05T03:57:16.222Z,13.46
2023-05-05T03:59:43.308Z,13.73
2023-05-05T04:02:10.213Z,14.12
2023-05-05T04:04:37.080Z,14.37
2023-05-05T04:07:03.997Z,14.49
2023-05-05T04:09:30.948Z,14.47
2023-05-05T04:11:57.920Z,14.53
2023-05-05T04:14:25.301Z,14.57
2023-05-05T04:16:52.744Z,14.62
2023-05-05T04:19:20.266Z,14.55
2023-05-05T04:21:47.419Z,14.87
2023-05-05T04:24:14.509Z,15.13
2023-05-05T04:26:42.341Z,15.35
2023-05-05T04:29:09.906Z,15.61
2023-05-05T04:31:37.186Z,15.43
2023-05-05T04:34:04.226Z,15.46
2023-05-05T04:36:32.972Z,14.89
2023-05-05T04:38:59.940Z,15.26
2023-05-05T04:41:28.255Z,15.48
2023-05-05T04:43:57.128Z,15.58
2023-05-05T04:46:27.623Z,15.83
2023-05-05T04:48:54.807Z,16.35
2023-05-05T04:51:22.390Z,16.45
2023-05-05T04:53:49.238Z,17.12
2023-05-05T04:56:16.094Z,17.07
2023-05-05T04:58:43.012Z,17.45
2023-05-05T05:01:09.928Z,17.41
2023-05-05T05:03:36.818Z,17.29
2023-05-05T05:06:04.094Z,17.22
2023-05-05T05:08:31.045Z,17.39
2023-05-05T05:11:00.077Z,17.29
2023-05-05T05:13:27.124Z,17.35
2023-05-05T05:15:54.676Z,17.44
2023-05-05T05:18:21.577Z,17.40
2023-05-05T05:20:49.889Z,17.38
2023-05-05T05:23:16.923Z,17.48
2023-05-05T05:25:45.008Z,17.62
2023-05-05T05:28:13.574Z,17.92
2023-05-05T05:30:48.640Z,18.13
2023-05-05T05:33:15.596Z,18.30
2023-05-05T05:35:43.581Z,17.57
2023-05-05T05:38:10.712Z,17.03
2023-05-05T05:40:38.310Z,17.28
2023-05-05T05:43:06.596Z,17.56
2023-05-05T05:45:34.528Z,17.72
2023-05-05T05:48:03.584Z,17.93
2023-05-05T05:50:30.642Z,17.64
2023-05-05T05:52:58.928Z,17.62
2023-05-05T05:55:26.952Z,17.60
2023-05-05T05:57:54.407Z,17.83
2023-05-05T06:00:21.373Z,17.80
2023-05-05T06:02:55.216Z,18.10
2023-05-05T06:05:26.207Z,17.93
2023-05-05T06:07:53.727Z,17.47
2023-05-05T06:10:27.441Z,17.54
2023-05-05T06:13:01.684Z,17.31
2023-05-05T06:15:33.520Z,17.08
2023-05-05T06:18:02.136Z,17.19
2023-05-05T06:20:29.701Z,17.34
2023-05-05T06:22:56.549Z,17.46
2023-05-05T06:25:24.434Z,17.72
2023-05-05T06:27:53.908Z,18.02
2023-05-05T06:30:20.876Z,17.97
2023-05-05T06:32:47.739Z,17.68
2023-05-05T06:35:14.712Z,18.14
2023-05-05T06:37:42.428Z,18.10
2023-05-05T06:40:10.578Z,17.85
2023-05-05T06:42:38.183Z,17.41
2023-05-05T06:45:10.399Z,17.42
2023-05-05T06:47:37.976Z,17.59
2023-05-05T06:50:06.085Z,17.65
2023-05-05T06:52:47.907Z,17.40
2023-05-05T06:55:17.894Z,17.45
2023-05-05T06:57:49.729Z,18.00
2023-05-05T07:00:20.182Z,18.18
2023-05-05T07:02:50.541Z,18.11
2023-05-05T07:05:19.995Z,18.50
2023-05-05T07:07:56.381Z,18.25
2023-05-05T07:10:24.657Z,18.37
2023-05-05T07:12:52.764Z,18.16
2023-05-05T07:15:28.774Z,18.36
2023-05-05T07:17:59.160Z,18.47
2023-05-05T07:20:26.661Z,18.64
2023-05-05T07:22:53.726Z,18.93
2023-05-05T07:25:21.470Z,18.87
2023-05-05T07:27:48.440Z,19.06
2023-05-05T07:30:18.296Z,19.39
2023-05-05T07:32:46.072Z,19.28
2023-05-05T07:35:13.484Z,19.05
2023-05-05T07:37:40.344Z,18.83
2023-05-05T07:40:08.256Z,18.59
2023-05-05T07:42:35.653Z,18.30
2023-05-05T07:45:03.524Z,18.02
2023-05-05T07:47:30.687Z,17.96
2023-05-05T07:49:58.984Z,17.99
2023-05-05T07:52:43.341Z,18.09
2023-05-05T07:55:14.369Z,18.11
2023-05-05T07:57:42.226Z,17.85
2023-05-05T08:00:13.439Z,17.51
2023-05-05T08:02:41.489Z,17.98
2023-05-05T08:05:09.401Z,17.98
2023-05-05T08:07:41.638Z,18.25
2023-05-05T08:10:10.924Z,17.88
2023-05-05T08:12:38.188Z,18.03
2023-05-05T08:15:06.363Z,17.98
2023-05-05T08:17:46.322Z,18.17
2023-05-05T08:20:14.012Z,18.21
2023-05-05T08:22:42.768Z,18.13
2023-05-05T08:25:11.375Z,18.23
2023-05-05T08:27:39.591Z,18.77
2023-05-05T08:30:07.654Z,18.96
2023-05-05T08:32:35.543Z,18.75
2023-05-05T08:35:06.643Z,18.94
2023-05-05T08:41:32.008Z,19.28
2023-05-05T08:43:58.988Z,19.35
2023-05-05T08:46:28.261Z,18.90
2023-05-05T08:48:55.689Z,18.95
2023-05-05T08:51:28.054Z,19.27
2023-05-05T08:53:54.930Z,19.22
2023-05-05T08:56:22.620Z,19.02
2023-05-05T08:58:51.807Z,18.94
2023-05-05T09:01:21.032Z,19.12
2023-05-05T09:03:48.269Z,19.13
2023-05-05T09:06:15.636Z,19.11
2023-05-05T09:08:42.915Z,19.34
2023-05-05T09:11:09.842Z,19.60
2023-05-05T09:13:36.977Z,19.97
2023-05-05T09:16:04.254Z,20.06
2023-05-05T09:18:32.284Z,20.09
2023-05-05T09:20:59.551Z,19.96
2023-05-05T09:23:26.666Z,19.93
2023-05-05T09:26:08.937Z,19.81
2023-05-05T09:28:37.468Z,19.75
2023-05-05T09:31:16.185Z,19.67
2023-05-05T09:33:43.667Z,19.68
2023-05-05T09:36:11.744Z,19.56
2023-05-05T09:38:38.804Z,19.71
2023-05-05T09:41:07.030Z,19.59
2023-05-05T09:43:51.982Z,19.69
2023-05-05T09:46:19.206Z,19.71
2023-05-05T09:48:46.585Z,19.58
2023-05-05T09:51:13.640Z,19.59
2023-05-05T09:53:41.933Z,19.43
2023-05-05T09:56:09.610Z,19.35
2023-05-05T09:58:36.839Z,19.53
2023-05-05T10:01:03.777Z,19.65
2023-05-05T10:03:30.821Z,19.75
2023-05-05T10:05:59.738Z,19.27
2023-05-05T10:08:33.639Z,19.39
2023-05-05T10:11:06.842Z,18.88
2023-05-05T10:13:40.177Z,18.72
2023-05-05T10:16:09.321Z,18.44
2023-05-05T10:18:40.410Z,18.11
2023-05-05T10:21:25.583Z,18.01
2023-05-05T10:24:04.429Z,17.94
2023-05-05T10:26:35.803Z,18.02
2023-05-05T10:29:06.532Z,18.44
2023-05-05T10:31:36.313Z,18.38
2023-05-05T10:34:05.994Z,18.79
2023-05-05T10:36:34.009Z,18.93
2023-05-05T10:39:01.651Z,19.31
2023-05-05T10:41:31.543Z,18.90
2023-05-05T10:44:00.007Z,18.89
2023-05-05T10:46:29.397Z,18.81
2023-05-05T10:49:25.920Z,18.77
2023-05-05T10:52:05.797Z,18.60
2023-05-05T10:54:38.554Z,18.78
2023-05-05T10:57:10.740Z,18.69
2023-05-05T10:59:37.882Z,18.66
2023-05-05T11:02:29.856Z,18.77
2023-05-05T11:05:09.881Z,18.97
2023-05-05T11:07:37.956Z,18.73
2023-05-05T11:10:06.860Z,18.72
2023-05-05T11:12:54.912Z,19.20
2023-05-05T11:15:28.670Z,19.53
2023-05-05T11:17:57.900Z,19.42
2023-05-05T11:20:39.401Z,19.33
2023-05-05T11:23:06.336Z,18.83
2023-05-05T11:25:49.414Z,18.83
2023-05-05T11:28:17.843Z,18.85
2023-05-05T11:30:55.132Z,19.11
2023-05-05T11:33:28.382Z,19.48
2023-05-05T11:35:56.570Z,19.23
2023-05-05T11:38:55.956Z,19.49
2023-05-05T11:41:51.762Z,19.53
2023-05-05T11:44:20.334Z,19.71
2023-05-05T11:46:54.157Z,19.68
2023-05-05T11:49:31.714Z,19.41
2023-05-05T11:51:59.848Z,19.27
2023-05-05T11:54:27.402Z,18.88
2023-05-05T11:56:59.060Z,18.89
2023-05-05T11:59:26.123Z,18.90
2023-05-05T12:01:53.551Z,18.84
2023-05-05T12:04:20.745Z,19.05
2023-05-05T12:06:49.092Z,19.27
2023-05-05T12:09:16.523Z,19.29
2023-05-05T12:11:57.064Z,19.15
2023-05-05T12:14:25.630Z,18.90
2023-05-05T12:17:09.129Z,18.93
2023-05-05T12:19:36.533Z,18.86
2023-05-05T12:22:05.006Z,18.69
2023-05-05T12:24:32.240Z,18.08
2023-05-05T12:27:08.852Z,17.76
2023-05-05T12:29:35.856Z,17.49
2023-05-05T12:32:05.750Z,17.95
2023-05-05T12:34:52.661Z,17.94
2023-05-05T12:37:24.741Z,17.95
2023-05-05T12:39:55.139Z,17.86
2023-05-05T12:42:23.313Z,17.54
2023-05-05T12:44:50.704Z,17.50
2023-05-05T12:47:31.753Z,17.95
2023-05-05T12:50:00.363Z,17.78
2023-05-05T12:52:46.110Z,17.65
2023-05-05T12:55:13.402Z,17.71
2023-05-05T12:58:02.290Z,17.50
2023-05-05T13:00:29.354Z,17.34
2023-05-05T13:02:57.009Z,17.33
2023-05-05T13:05:34.454Z,17.29
2023-05-05T13:08:02.139Z,17.15
2023-05-05T13:10:31.378Z,17.24
2023-05-05T13:12:58.849Z,17.22
2023-05-05T13:15:26.395Z,17.40
2023-05-05T13:18:00.995Z,17.51
2023-05-05T13:20:28.263Z,17.64
2023-05-05T13:22:55.348Z,17.92
2023-05-05T13:25:22.545Z,18.13
2023-05-05T13:27:49.481Z,17.92
2023-05-05T13:30:16.476Z,18.33
2023-05-05T13:32:43.518Z,18.48
2023-05-05T13:35:12.129Z,18.29
2023-05-05T13:37:41.532Z,18.44
2023-05-05T13:40:09.208Z,18.80
2023-05-05T13:42:36.212Z,18.33
2023-05-05T13:45:03.461Z,18.77
2023-05-05T13:47:31.897Z,19.11
2023-05-05T13:49:59.089Z,19.25
2023-05-05T13:52:27.575Z,18.91
2023-05-05T13:54:55.269Z,18.98
2023-05-05T13:57:22.174Z,19.29
2023-05-05T13:59:49.181Z,18.53
2023-05-05T14:02:16.298Z,18.62
2023-05-05T14:04:43.331Z,19.07
2023-05-05T14:07:10.319Z,19.31
2023-05-05T14:09:37.294Z,18.91
2023-05-05T14:12:05.051Z,18.64
2023-05-05T14:14:32.061Z,18.26
2023-05-05T14:16:59.090Z,18.09
2023-05-05T14:19:26.142Z,17.84
2023-05-05T14:21:53.487Z,17.75
2023-05-05T14:24:20.825Z,17.97
2023-05-05T14:26:47.996Z,17.74
2023-05-05T14:29:15.039Z,17.93
2023-05-05T14:31:42.146Z,17.98
2023-05-05T14:34:09.161Z,17.52
2023-05-05T14:36:36.364Z,17.50
2023-05-05T14:39:03.422Z,17.67
2023-05-05T14:41:30.563Z,17.43
2023-05-05T14:43:57.528Z,17.58
2023-05-05T14:46:24.832Z,17.79
2023-05-05T14:48:52.131Z,17.48
2023-05-05T14:51:19.476Z,17.51
2023-05-05T14:53:46.764Z,17.64
2023-05-05T14:56:14.099Z,17.63
2023-05-05T14:58:41.180Z,17.53
2023-05-05T15:01:08.180Z,17.79
2023-05-05T15:03:35.596Z,17.86
2023-05-05T15:06:02.744Z,17.74
2023-05-05T15:08:29.661Z,17.47
2023-05-05T15:10:56.735Z,17.56
2023-05-05T15:13:25.128Z,17.59
2023-05-05T15:15:53.638Z,17.59
2023-05-05T15:18:20.545Z,17.35
2023-05-05T15:20:47.597Z,17.76
2023-05-05T15:23:14.798Z,18.11
2023-05-05T15:25:41.782Z,18.06
2023-05-05T15:28:08.741Z,18.04
2023-05-05T15:30:35.976Z,17.95
2023-05-05T15:33:03.015Z,17.99
2023-05-05T15:35:30.056Z,18.08
2023-05-05T15:37:57.283Z,17.96
2023-05-05T15:40:24.433Z,18.12
2023-05-05T15:42:51.639Z,18.20
2023-05-05T15:45:18.650Z,17.71
2023-05-05T15:47:47.948Z,17.48
2023-05-05T15:50:15.047Z,17.40
2023-05-05T15:52:42.499Z,17.52
2023-05-05T15:55:10.421Z,17.44
2023-05-05T15:57:40.410Z,17.55
2023-05-05T16:00:08.941Z,17.57
2023-05-05T16:02:37.166Z,17.74
2023-05-05T16:05:04.899Z,17.57
2023-05-05T16:07:32.025Z,17.40
2023-05-05T16:09:58.930Z,17.14
2023-05-05T16:12:26.013Z,17.25
2023-05-05T16:14:53.324Z,17.05
2023-05-05T16:17:21.703Z,16.77
2023-05-05T16:19:49.637Z,16.86
2023-05-05T16:22:16.616Z,16.92
2023-05-05T16:24:44.391Z,16.90
2023-05-05T16:27:11.955Z,16.90
2023-05-05T16:29:39.020Z,16.84
2023-05-05T16:32:06.467Z,16.73
2023-05-05T16:34:33.699Z,16.78
2023-05-05T16:37:01.014Z,16.73
2023-05-05T16:39:28.392Z,16.63
2023-05-05T16:41:55.612Z,16.63
2023-05-05T16:44:22.641Z,16.35
2023-05-05T16:50:46.063Z,16.41
2023-05-05T16:53:13.129Z,16.48
2023-05-05T16:55:40.512Z,16.34
2023-05-05T16:58:07.608Z,16.50
2023-05-05T17:03:19.444Z,16.82
2023-05-05T17:05:50.451Z,16.82
2023-05-05T17:08:17.612Z,16.81
2023-05-05T17:20:52.276Z,16.52
2023-05-05T17:23:21.282Z,16.54
2023-05-05T17:25:48.254Z,16.53
2023-05-05T17:28:17.537Z,16.61
2023-05-05T17:30:44.647Z,16.65
2023-05-05T17:33:11.749Z,16.77
2023-05-05T17:35:39.091Z,16.73
2023-05-05T17:38:06.185Z,16.85
2023-05-05T17:40:33.715Z,16.73
2023-05-05T17:43:00.957Z,16.62
2023-05-05T17:45:28.103Z,16.50
2023-05-05T17:47:55.641Z,16.30
2023-05-05T17:50:22.706Z,16.39
2023-05-05T17:52:49.757Z,16.22
2023-05-05T17:55:18.596Z,16.07
2023-05-05T17:57:47.402Z,15.85
2023-05-05T18:00:14.934Z,16.01
2023-05-05T18:02:44.619Z,16.13
2023-05-05T18:05:12.001Z,16.27
2023-05-05T18:07:39.153Z,16.18
2023-05-05T18:10:10.664Z,16.34
2023-05-05T18:12:37.921Z,16.20
2023-05-05T18:15:05.666Z,16.28
2023-05-05T18:17:34.430Z,16.09
2023-05-05T18:20:01.795Z,16.13
2023-05-05T18:22:31.688Z,16.14
2023-05-05T18:25:00.220Z,16.23
2023-05-05T18:27:28.257Z,16.28
2023-05-05T18:29:55.357Z,16.32
2023-05-05T18:32:23.964Z,16.47
2023-05-05T18:34:51.663Z,16.67
2023-05-05T18:37:18.909Z,16.88
2023-05-05T18:39:50.801Z,16.83
2023-05-05T18:42:27.791Z,16.82
2023-05-05T18:44:55.123Z,16.78
2023-05-05T18:47:22.301Z,16.95
2023-05-05T18:49:49.810Z,16.56
2023-05-05T18:52:20.154Z,16.45
2023-05-05T18:54:47.162Z,16.59
2023-05-05T18:57:15.174Z,16.56
2023-05-05T18:59:42.186Z,16.73
2023-05-05T19:02:09.130Z,16.77
2023-05-05T19:04:38.130Z,16.73
2023-05-05T19:07:08.628Z,16.67
2023-05-05T19:09:36.136Z,16.50
2023-05-05T19:12:04.812Z,16.30
2023-05-05T19:14:31.850Z,16.40
2023-05-05T19:16:59.719Z,16.30
2023-05-05T19:19:26.844Z,16.45
2023-05-05T19:21:54.914Z,16.32
2023-05-05T19:24:21.921Z,16.32
2023-05-05T19:26:48.863Z,16.44
2023-05-05T19:29:16.430Z,16.57
2023-05-05T19:31:43.424Z,16.59
2023-05-05T19:34:10.393Z,16.34
2023-05-05T19:36:38.365Z,16.31
2023-05-05T19:39:05.350Z,16.47
2023-05-05T19:41:32.715Z,16.51
2023-05-05T19:43:59.675Z,16.46
2023-05-05T19:46:26.918Z,16.35
2023-05-05T19:48:54.187Z,15.98
2023-05-05T19:51:21.422Z,16.20
2023-05-05T19:53:48.628Z,16.33
2023-05-05T19:56:17.230Z,16.27
2023-05-05T19:59:03.752Z,16.20
2023-05-05T20:01:30.950Z,15.99
2023-05-05T20:03:58.165Z,16.12
2023-05-05T20:06:27.272Z,16.06
2023-05-05T20:08:55.996Z,16.17
2023-05-05T20:11:24.294Z,16.22
2023-05-05T20:14:00.194Z,16.23
2023-05-05T20:16:27.557Z,16.10
2023-05-05T20:19:00.493Z,16.12
2023-05-05T20:21:29.645Z,16.20
2023-05-05T20:23:57.756Z,16.05
2023-05-05T20:26:25.819Z,16.11
2023-05-05T20:28:53.695Z,16.09
2023-05-05T20:31:22.252Z,15.94
2023-05-05T20:33:49.900Z,16.03
2023-05-05T20:36:19.152Z,16.06
2023-05-05T20:38:46.055Z,16.13
2023-05-05T20:41:13.053Z,15.99
2023-05-05T20:43:40.252Z,16.05
2023-05-05T20:46:12.214Z,15.92
2023-05-05T20:48:43.153Z,15.86
2023-05-05T20:51:13.305Z,15.78
2023-05-05T20:53:40.707Z,15.75
2023-05-05T20:56:08.811Z,15.77
2023-05-05T20:58:36.966Z,16.01
2023-05-05T21:01:04.406Z,15.94
2023-05-05T21:03:32.433Z,15.92
2023-05-05T21:05:59.327Z,15.90
2023-05-05T21:08:26.786Z,15.90
2023-05-05T21:10:53.804Z,15.79
2023-05-05T21:13:20.829Z,15.60
2023-05-05T21:15:50.377Z,15.55
2023-05-05T21:18:17.465Z,15.46
2023-05-05T21:20:46.747Z,15.62
2023-05-05T21:23:15.741Z,15.55
2023-05-05T21:25:43.164Z,15.69
2023-05-05T21:28:11.565Z,15.70
2023-05-05T21:30:39.856Z,15.74
2023-05-05T21:33:07.275Z,15.68
2023-05-05T21:35:37.788Z,15.63
2023-05-05T21:38:04.758Z,15.60
2023-05-05T21:40:32.737Z,15.63
2023-05-05T21:42:59.686Z,15.58
2023-05-05T21:45:26.753Z,15.56
2023-05-05T21:47:53.775Z,15.56
2023-05-05T21:50:20.761Z,15.75
2023-05-05T21:52:47.667Z,15.63
2023-05-05T21:55:14.811Z,15.63
2023-05-05T21:57:41.804Z,15.59
2023-05-05T22:00:09.732Z,15.55
2023-05-05T22:02:43.251Z,15.53
2023-05-05T22:05:10.604Z,15.59
2023-05-05T22:07:37.911Z,15.60
2023-05-05T22:10:05.260Z,15.36
2023-05-05T22:12:33.107Z,15.58
2023-05-05T22:15:00.291Z,15.59
2023-05-05T22:17:28.429Z,15.68
2023-05-05T22:19:55.410Z,15.68
2023-05-05T22:22:22.306Z,15.64
2023-05-05T22:24:49.235Z,15.53
2023-05-05T22:27:16.430Z,15.48
2023-05-05T22:29:43.436Z,15.52
2023-05-05T22:32:10.407Z,15.48
2023-05-05T22:34:37.381Z,15.56
2023-05-05T22:37:04.459Z,15.50
2023-05-05T22:39:32.660Z,15.43
2023-05-05T22:41:59.724Z,15.46
2023-05-05T22:44:26.666Z,15.42
2023-05-05T22:46:53.662Z,15.19
2023-05-05T22:49:21.015Z,15.29
2023-05-05T22:51:48.120Z,15.21
2023-05-05T22:54:15.078Z,15.12
2023-05-05T22:56:42.234Z,15.36
2023-05-05T22:59:10.774Z,15.36
2023-05-05T23:01:38.238Z,15.44
2023-05-05T23:04:06.572Z,15.43
2023-05-05T23:06:33.667Z,15.34
2023-05-05T23:09:00.721Z,15.46
2023-05-05T23:11:28.752Z,15.30
2023-05-05T23:13:55.732Z,15.22
2023-05-05T23:16:23.301Z,15.40
2023-05-05T23:18:50.417Z,15.33
2023-05-05T23:21:17.357Z,15.42
2023-05-05T23:23:44.559Z,15.45
2023-05-05T23:26:13.678Z,15.33
2023-05-05T23:28:41.697Z,15.33
2023-05-05T23:31:09.078Z,14.91
2023-05-05T23:33:36.086Z,15.03
2023-05-05T23:36:03.059Z,14.93
2023-05-05T23:38:30.062Z,15.02
2023-05-05T23:40:57.084Z,15.16
2023-05-05T23:43:24.072Z,15.13
2023-05-05T23:45:51.592Z,15.17
2023-05-05T23:48:18.585Z,15.10
2023-05-05T23:50:45.554Z,14.91
2023-05-05T23:53:12.640Z,14.99
2023-05-05T23:55:39.594Z,14.85
2023-05-05T23:58:06.517Z,14.30
